Gorham, ME (04038)

4:18 PM EST on February 06, 2016 (GMT -0500)
Stonefield Phase II | | Change Station
CLOSE
Current Station
Personal Weather Station
Location: Gorham, ME
Elevation: 178 ft
Nearby Weather Stations

Elev 178 ft 43.72 °N, 70.44 °W | Updated 2 seconds ago

Partly Cloudy
Partly Cloudy
33.8 °F
Feels Like 34 °F
N
0.0
Wind Variable Wind from North
Gusts 7.0 mph

Today
High -- | Low -- °F
--% Chance of Precip.
Yesterday
High -- | Low -- °F
Precip. -- in
Pressure 30.21 in
Visibility 10.0 miles
Clouds Few 12000 ft
Scattered Clouds 25000 ft
Windchill 34 °F
Dew Point 28 °F
Humidity 80%
Rainfall 0.02 in
Snow Depth Not available.
6:53 AM 4:59 PM
Waning Crescent, 4% visible
METAR KPWM 062051Z 23009KT 10SM FEW120 SCT250 02/M03 A3021 RMK AO2 SLP230 T00171028 56014
Pressure 30.21 in
Visibility 10.0 miles
Clouds Few 12000 ft
Scattered Clouds 25000 ft
Windchill 34 °F
Dew Point 28 °F
Humidity 80%
Rainfall 0.02 in
Snow Depth Not available.
6:53 AM 4:59 PM
Waning Crescent, 4% visible
METAR KPWM 062051Z 23009KT 10SM FEW120 SCT250 02/M03 A3021 RMK AO2 SLP230 T00171028 56014

10-Day Weather Forecast

Almanac

Astronomy

Feb. 06, 2016 Rise Set
Actual Time
Civil Twilight
Nautical Twilight
Astronomical Twilight
Moon
Length of Visible Light
Length of Day
Tomorrow will be .
, % of the Moon is Illuminated

Today's Extremes

State Highs State Lows

Community

WunderPhotos

Upload Photos

1,891,050 photos uploaded!

WunderBlog® & News

Nearby

Air Quality

  Air Quality AQ Index Pollutant
Not available.

Snow Depth

Station Depth Elevation

Earthquake Activity

City Distance Mag. Time & Date
Minimum magnitude displayed is 2.5.

Coastal Water Temperatures

Place Temperature

Stations

Nearby Weather Stations

Station Location Temp. Windchill Dew Point Humidity Wind Precip. Elev Updated Type
                   

Watches & Warnings

There are currently no watches in effect.